ZAREMBO AK US current weather conditions

sailwx.info

Wind from 004 at 3 knots gusting 6

Air temperature 12.2° C
Dewpoint 8.3° C

Last reported at 2016-Aug-29 06:55 UTC.
Time now 2016-Aug-29 08:55 UTC

Location: N 56°18' W 132°51'.
View on Google Maps.

See reports from other nearby stations

  
Tides and Currents Weather Stations Pressure Air Temp Water Temp Dewpoint Dewpoint Depression Visibility Wind Speed Wind Dir Waves Ship Positions
date/time (UTC)wind fromknots sea level pressurealtimeterstation pressurevisibilityair tempwater tempwave heightnotes
2016-Aug-29 06:55 004 3 gusting 6 12.2
2016-Aug-29 05:55 343 2 gusting 4 12.8
2016-Aug-29 04:55 027 1 gusting 3 12.2
2016-Aug-29 03:55 032 0 gusting 3 12.2
2016-Aug-29 02:55 234 1 gusting 11 12.8
2016-Aug-29 01:55 091 5 gusting 10 14.4
2016-Aug-29 00:55 070 2 gusting 8 15.0
2016-Aug-28 23:55 145 5 gusting 10 17.8
2016-Aug-28 22:55 117 3 gusting 6 17.8
2016-Aug-28 21:55 144 5 gusting 7 18.3
2016-Aug-28 20:55 147 4 gusting 7 17.8
2016-Aug-28 19:55 159 3 gusting 7 20.0
2016-Aug-28 18:55 172 1 gusting 6 20.6
2016-Aug-28 17:55 250 1 gusting 6 20.0
2016-Aug-28 16:55 353 0 gusting 5 18.3
2016-Aug-28 15:55 102 0 gusting 6 14.4
2016-Aug-28 14:55 13.9
2016-Aug-28 13:55 332 4 gusting 7 14.4
2016-Aug-28 12:55 358 1 gusting 3 13.9
2016-Aug-28 11:55 13.3
2016-Aug-28 10:55 234 1 gusting 5 13.9
2016-Aug-28 09:55 252 0 gusting 4 15.0
2016-Aug-28 08:55 123 0 gusting 4 15.6
2016-Aug-28 07:55 15.6
2016-Aug-28 06:55 011 0 gusting 3 14.4
2016-Aug-28 05:55 159 4 gusting 6 15.0
2016-Aug-28 04:55 18.3
2016-Aug-28 03:55 19.4
2016-Aug-28 02:55 135 3 gusting 6 20.6
2016-Aug-28 01:55 153 4 gusting 7 22.2
2016-Aug-28 00:55 142 4 gusting 9 22.8
2016-Aug-27 23:55 167 3 gusting 9 24.4
2016-Aug-27 22:55 149 5 gusting 9 23.3
2016-Aug-27 21:55 318 2 gusting 8 24.4
2016-Aug-27 20:55 326 4 gusting 14 22.8
2016-Aug-27 19:55 329 6 gusting 15 21.7
2016-Aug-27 18:55 318 6 gusting 13 21.1
2016-Aug-27 17:55 327 5 gusting 11 20.0
2016-Aug-27 16:55 340 4 gusting 7 18.3
2016-Aug-27 15:55 343 0 gusting 3 14.4
2016-Aug-27 14:55 322 0 gusting 2 13.3
2016-Aug-27 13:55 068 1 gusting 5 11.7
2016-Aug-27 12:55 023 2 gusting 5 12.2
2016-Aug-27 11:55 12.2
2016-Aug-27 10:55 092 0 gusting 6 12.2
2016-Aug-27 09:55 047 2 gusting 6 12.8
2016-Aug-27 08:55 171 2 gusting 9 12.8